Terminal Aerodrome Forecast
Issued by NWS

Home | Current Version | Previous Version | Graphics & Text | Print | Product List | Glossary On
Versions: 1 2 3 4 5 6 7 8 9 10 11 12 13 14
216
FTUS43 KABR 221729
TAFPIR
TAF
KPIR 221729Z 2218/2318 18008KT P6SM SKC
     FM222200 28012KT P6SM FEW250
     FM230800 29004KT P6SM FEW250
     FM231000 23003KT 4SM BR SCT200=

USA.gov is the U.S. government's official web portal to all federal, state and local government web resources and services.